sensor_id;sensor_type;location;lat;lon;timestamp;P1;durP1;ratioP1;P2;durP2;ratioP2
69890;SDS011;57170;43.964;21.262;2024-03-23T00:55:55;23.42;;;17.83;;
69890;SDS011;57170;43.964;21.262;2024-03-23T00:58:21;20.75;;;16.45;;
69890;SDS011;57170;43.964;21.262;2024-03-23T01:00:47;25.60;;;17.40;;
69890;SDS011;57170;43.964;21.262;2024-03-23T01:03:13;23.92;;;16.67;;
69890;SDS011;57170;43.964;21.262;2024-03-23T01:05:39;27.27;;;16.73;;
69890;SDS011;57170;43.964;21.262;2024-03-23T01:08:05;22.42;;;15.93;;
69890;SDS011;57170;43.964;21.262;2024-03-23T01:10:32;20.05;;;14.70;;
69890;SDS011;57170;43.964;21.262;2024-03-23T01:12:58;23.45;;;15.80;;
69890;SDS011;57170;43.964;21.262;2024-03-23T01:15:24;27.00;;;17.02;;
69890;SDS011;57170;43.964;21.262;2024-03-23T01:17:50;22.88;;;15.50;;
69890;SDS011;57170;43.964;21.262;2024-03-23T01:20:16;23.23;;;15.90;;
69890;SDS011;57170;43.964;21.262;2024-03-23T01:22:42;23.50;;;16.85;;
69890;SDS011;57170;43.964;21.262;2024-03-23T01:25:08;19.98;;;15.25;;
69890;SDS011;57170;43.964;21.262;2024-03-23T01:27:34;21.42;;;17.45;;
69890;SDS011;57170;43.964;21.262;2024-03-23T01:30:00;18.80;;;15.88;;
69890;SDS011;57170;43.964;21.262;2024-03-23T01:32:26;22.20;;;15.90;;
69890;SDS011;57170;43.964;21.262;2024-03-23T01:34:52;21.65;;;15.60;;
69890;SDS011;57170;43.964;21.262;2024-03-23T01:37:18;18.45;;;15.18;;
69890;SDS011;57170;43.964;21.262;2024-03-23T01:39:44;21.27;;;15.30;;
69890;SDS011;57170;43.964;21.262;2024-03-23T01:42:11;20.38;;;15.18;;
69890;SDS011;57170;43.964;21.262;2024-03-23T01:44:37;24.83;;;16.67;;
69890;SDS011;57170;43.964;21.262;2024-03-23T01:47:03;24.77;;;16.67;;
69890;SDS011;57170;43.964;21.262;2024-03-23T01:49:29;26.05;;;17.30;;
69890;SDS011;57170;43.964;21.262;2024-03-23T01:51:56;24.48;;;16.70;;
69890;SDS011;57170;43.964;21.262;2024-03-23T01:54:22;25.95;;;19.17;;
69890;SDS011;57170;43.964;21.262;2024-03-23T01:56:48;24.52;;;18.20;;
69890;SDS011;57170;43.964;21.262;2024-03-23T01:59:15;32.30;;;18.45;;
69890;SDS011;57170;43.964;21.262;2024-03-23T02:01:41;29.42;;;19.90;;
69890;SDS011;57170;43.964;21.262;2024-03-23T02:04:07;36.28;;;21.63;;
69890;SDS011;57170;43.964;21.262;2024-03-23T02:06:34;26.73;;;19.58;;
69890;SDS011;57170;43.964;21.262;2024-03-23T02:09:00;31.42;;;21.13;;
69890;SDS011;57170;43.964;21.262;2024-03-23T02:11:27;29.20;;;20.60;;
69890;SDS011;57170;43.964;21.262;2024-03-23T02:13:53;26.75;;;20.50;;
69890;SDS011;57170;43.964;21.262;2024-03-23T02:16:19;24.40;;;18.13;;
69890;SDS011;57170;43.964;21.262;2024-03-23T02:18:45;33.92;;;22.75;;
69890;SDS011;57170;43.964;21.262;2024-03-23T02:21:11;33.63;;;22.70;;
69890;SDS011;57170;43.964;21.262;2024-03-23T02:23:37;25.55;;;17.55;;
69890;SDS011;57170;43.964;21.262;2024-03-23T02:26:03;23.70;;;17.02;;
69890;SDS011;57170;43.964;21.262;2024-03-23T02:28:29;20.85;;;17.23;;
69890;SDS011;57170;43.964;21.262;2024-03-23T02:30:55;25.33;;;17.52;;
69890;SDS011;57170;43.964;21.262;2024-03-23T02:33:22;24.52;;;17.88;;
69890;SDS011;57170;43.964;21.262;2024-03-23T02:35:48;24.17;;;18.83;;
69890;SDS011;57170;43.964;21.262;2024-03-23T02:38:15;26.38;;;17.67;;
69890;SDS011;57170;43.964;21.262;2024-03-23T02:40:41;25.58;;;18.70;;
69890;SDS011;57170;43.964;21.262;2024-03-23T02:43:07;23.63;;;17.70;;
69890;SDS011;57170;43.964;21.262;2024-03-23T02:45:33;22.92;;;17.60;;
69890;SDS011;57170;43.964;21.262;2024-03-23T02:47:59;24.23;;;18.20;;
69890;SDS011;57170;43.964;21.262;2024-03-23T02:50:25;24.55;;;16.88;;
69890;SDS011;57170;43.964;21.262;2024-03-23T02:52:51;22.95;;;16.23;;
69890;SDS011;57170;43.964;21.262;2024-03-23T02:55:17;23.63;;;15.90;;
69890;SDS011;57170;43.964;21.262;2024-03-23T02:57:43;20.50;;;16.85;;
69890;SDS011;57170;43.964;21.262;2024-03-23T03:00:10;24.63;;;17.50;;
69890;SDS011;57170;43.964;21.262;2024-03-23T03:02:36;21.58;;;16.33;;
69890;SDS011;57170;43.964;21.262;2024-03-23T03:05:03;22.60;;;16.50;;
69890;SDS011;57170;43.964;21.262;2024-03-23T03:07:30;22.27;;;16.25;;
69890;SDS011;57170;43.964;21.262;2024-03-23T03:09:56;23.70;;;18.00;;
69890;SDS011;57170;43.964;21.262;2024-03-23T03:12:22;26.17;;;19.15;;
69890;SDS011;57170;43.964;21.262;2024-03-23T03:14:48;26.15;;;18.05;;
69890;SDS011;57170;43.964;21.262;2024-03-23T03:17:14;22.08;;;17.20;;
69890;SDS011;57170;43.964;21.262;2024-03-23T03:19:41;21.30;;;17.38;;
69890;SDS011;57170;43.964;21.262;2024-03-23T03:22:07;29.55;;;17.77;;
69890;SDS011;57170;43.964;21.262;2024-03-23T03:24:33;25.48;;;18.80;;
69890;SDS011;57170;43.964;21.262;2024-03-23T03:26:59;22.58;;;17.40;;
69890;SDS011;57170;43.964;21.262;2024-03-23T03:29:25;31.85;;;20.20;;
69890;SDS011;57170;43.964;21.262;2024-03-23T03:34:25;30.65;;;20.33;;
69890;SDS011;57170;43.964;21.262;2024-03-23T03:36:51;29.33;;;20.58;;
69890;SDS011;57170;43.964;21.262;2024-03-23T03:39:17;23.48;;;18.45;;
69890;SDS011;57170;43.964;21.262;2024-03-23T03:41:43;31.70;;;20.00;;
69890;SDS011;57170;43.964;21.262;2024-03-23T03:44:09;32.42;;;21.50;;
69890;SDS011;57170;43.964;21.262;2024-03-23T03:46:35;26.20;;;18.45;;
69890;SDS011;57170;43.964;21.262;2024-03-23T03:49:01;30.95;;;20.10;;
69890;SDS011;57170;43.964;21.262;2024-03-23T03:51:27;27.25;;;16.90;;
69890;SDS011;57170;43.964;21.262;2024-03-23T03:53:53;20.88;;;17.13;;
69890;SDS011;57170;43.964;21.262;2024-03-23T03:56:20;27.48;;;18.50;;
69890;SDS011;57170;43.964;21.262;2024-03-23T03:58:47;25.70;;;17.73;;
69890;SDS011;57170;43.964;21.262;2024-03-23T04:01:13;24.27;;;16.58;;
69890;SDS011;57170;43.964;21.262;2024-03-23T04:03:40;25.67;;;17.13;;
69890;SDS011;57170;43.964;21.262;2024-03-23T04:06:08;26.75;;;17.77;;
69890;SDS011;57170;43.964;21.262;2024-03-23T04:08:35;23.58;;;16.27;;
69890;SDS011;57170;43.964;21.262;2024-03-23T04:11:01;24.75;;;16.58;;
69890;SDS011;57170;43.964;21.262;2024-03-23T04:13:27;27.98;;;16.98;;
69890;SDS011;57170;43.964;21.262;2024-03-23T04:15:56;23.45;;;16.42;;
69890;SDS011;57170;43.964;21.262;2024-03-23T04:18:22;19.92;;;15.85;;
69890;SDS011;57170;43.964;21.262;2024-03-23T04:20:49;24.13;;;16.55;;
69890;SDS011;57170;43.964;21.262;2024-03-23T04:23:15;23.33;;;16.65;;
69890;SDS011;57170;43.964;21.262;2024-03-23T04:25:41;20.23;;;16.23;;
69890;SDS011;57170;43.964;21.262;2024-03-23T04:28:07;24.33;;;16.80;;
69890;SDS011;57170;43.964;21.262;2024-03-23T04:30:33;23.38;;;16.65;;
69890;SDS011;57170;43.964;21.262;2024-03-23T04:33:00;25.13;;;16.70;;
69890;SDS011;57170;43.964;21.262;2024-03-23T04:35:26;33.95;;;18.33;;
69890;SDS011;57170;43.964;21.262;2024-03-23T04:37:53;27.85;;;18.42;;
69890;SDS011;57170;43.964;21.262;2024-03-23T04:40:20;27.02;;;17.63;;
69890;SDS011;57170;43.964;21.262;2024-03-23T04:42:47;32.35;;;21.02;;
69890;SDS011;57170;43.964;21.262;2024-03-23T04:45:13;25.20;;;18.20;;
69890;SDS011;57170;43.964;21.262;2024-03-23T04:47:40;25.35;;;18.13;;
69890;SDS011;57170;43.964;21.262;2024-03-23T04:50:06;25.23;;;18.42;;
69890;SDS011;57170;43.964;21.262;2024-03-23T04:52:32;30.35;;;20.40;;
69890;SDS011;57170;43.964;21.262;2024-03-23T04:54:58;26.33;;;20.30;;
69890;SDS011;57170;43.964;21.262;2024-03-23T04:57:24;28.63;;;20.38;;
69890;SDS011;57170;43.964;21.262;2024-03-23T04:59:51;32.25;;;23.70;;
69890;SDS011;57170;43.964;21.262;2024-03-23T05:02:17;94.03;;;62.38;;
69890;SDS011;57170;43.964;21.262;2024-03-23T05:04:43;39.92;;;29.48;;
69890;SDS011;57170;43.964;21.262;2024-03-23T05:07:09;29.80;;;19.13;;
69890;SDS011;57170;43.964;21.262;2024-03-23T05:09:36;23.10;;;17.15;;
69890;SDS011;57170;43.964;21.262;2024-03-23T05:12:02;22.73;;;16.85;;
69890;SDS011;57170;43.964;21.262;2024-03-23T05:14:29;25.42;;;19.83;;
69890;SDS011;57170;43.964;21.262;2024-03-23T05:16:55;19.77;;;15.07;;
69890;SDS011;57170;43.964;21.262;2024-03-23T05:19:21;21.38;;;15.73;;
69890;SDS011;57170;43.964;21.262;2024-03-23T05:21:47;21.13;;;15.80;;
69890;SDS011;57170;43.964;21.262;2024-03-23T05:24:13;29.92;;;17.83;;
69890;SDS011;57170;43.964;21.262;2024-03-23T05:26:40;20.85;;;17.58;;
69890;SDS011;57170;43.964;21.262;2024-03-23T05:29:06;28.15;;;21.90;;
69890;SDS011;57170;43.964;21.262;2024-03-23T05:31:35;28.15;;;23.08;;
69890;SDS011;57170;43.964;21.262;2024-03-23T05:34:02;31.73;;;20.77;;
69890;SDS011;57170;43.964;21.262;2024-03-23T05:36:28;20.70;;;17.60;;
69890;SDS011;57170;43.964;21.262;2024-03-23T05:38:55;20.98;;;17.35;;
69890;SDS011;57170;43.964;21.262;2024-03-23T05:41:21;19.67;;;15.82;;
69890;SDS011;57170;43.964;21.262;2024-03-23T05:43:49;20.73;;;17.13;;
69890;SDS011;57170;43.964;21.262;2024-03-23T05:46:15;19.10;;;16.13;;
69890;SDS011;57170;43.964;21.262;2024-03-23T05:48:43;19.33;;;16.23;;
69890;SDS011;57170;43.964;21.262;2024-03-23T05:51:09;21.45;;;16.80;;
69890;SDS011;57170;43.964;21.262;2024-03-23T05:53:37;21.63;;;15.75;;
69890;SDS011;57170;43.964;21.262;2024-03-23T05:56:03;21.17;;;16.08;;
69890;SDS011;57170;43.964;21.262;2024-03-23T05:58:30;20.30;;;16.45;;
69890;SDS011;57170;43.964;21.262;2024-03-23T06:01:00;18.75;;;16.80;;
69890;SDS011;57170;43.964;21.262;2024-03-23T06:03:27;22.42;;;16.05;;
69890;SDS011;57170;43.964;21.262;2024-03-23T06:05:53;20.50;;;16.67;;
69890;SDS011;57170;43.964;21.262;2024-03-23T06:08:19;19.70;;;16.95;;
69890;SDS011;57170;43.964;21.262;2024-03-23T06:10:46;21.50;;;16.80;;
69890;SDS011;57170;43.964;21.262;2024-03-23T06:13:12;17.38;;;14.68;;
69890;SDS011;57170;43.964;21.262;2024-03-23T06:15:38;19.15;;;15.80;;
69890;SDS011;57170;43.964;21.262;2024-03-23T06:18:05;20.63;;;16.38;;
69890;SDS011;57170;43.964;21.262;2024-03-23T06:20:33;19.60;;;14.75;;
69890;SDS011;57170;43.964;21.262;2024-03-23T06:22:59;19.13;;;15.30;;
69890;SDS011;57170;43.964;21.262;2024-03-23T06:25:25;19.35;;;15.55;;
69890;SDS011;57170;43.964;21.262;2024-03-23T06:27:51;25.02;;;18.30;;
69890;SDS011;57170;43.964;21.262;2024-03-23T06:30:18;24.08;;;18.52;;
69890;SDS011;57170;43.964;21.262;2024-03-23T06:32:44;22.67;;;18.73;;
69890;SDS011;57170;43.964;21.262;2024-03-23T06:35:10;24.50;;;19.33;;
69890;SDS011;57170;43.964;21.262;2024-03-23T06:37:36;23.15;;;18.50;;
69890;SDS011;57170;43.964;21.262;2024-03-23T06:40:04;26.85;;;20.60;;
69890;SDS011;57170;43.964;21.262;2024-03-23T06:42:33;22.77;;;19.83;;
69890;SDS011;57170;43.964;21.262;2024-03-23T06:44:59;28.17;;;20.25;;
69890;SDS011;57170;43.964;21.262;2024-03-23T06:47:25;24.58;;;21.92;;
69890;SDS011;57170;43.964;21.262;2024-03-23T06:49:51;24.45;;;21.05;;
69890;SDS011;57170;43.964;21.262;2024-03-23T06:52:17;24.15;;;21.60;;
69890;SDS011;57170;43.964;21.262;2024-03-23T06:54:44;36.95;;;28.98;;
69890;SDS011;57170;43.964;21.262;2024-03-23T06:57:11;30.88;;;22.98;;
69890;SDS011;57170;43.964;21.262;2024-03-23T06:59:37;26.80;;;24.00;;
69890;SDS011;57170;43.964;21.262;2024-03-23T07:02:06;26.05;;;23.30;;
69890;SDS011;57170;43.964;21.262;2024-03-23T07:04:34;27.88;;;24.98;;
69890;SDS011;57170;43.964;21.262;2024-03-23T07:07:00;30.90;;;26.80;;
69890;SDS011;57170;43.964;21.262;2024-03-23T07:09:29;32.33;;;28.05;;
69890;SDS011;57170;43.964;21.262;2024-03-23T07:11:58;32.70;;;26.17;;
69890;SDS011;57170;43.964;21.262;2024-03-23T07:14:24;27.42;;;24.25;;
69890;SDS011;57170;43.964;21.262;2024-03-23T07:16:51;27.05;;;24.33;;
69890;SDS011;57170;43.964;21.262;2024-03-23T07:19:17;24.35;;;21.85;;
69890;SDS011;57170;43.964;21.262;2024-03-23T07:21:46;23.00;;;20.58;;
69890;SDS011;57170;43.964;21.262;2024-03-23T07:24:13;25.63;;;22.75;;
69890;SDS011;57170;43.964;21.262;2024-03-23T07:26:39;30.55;;;23.98;;
69890;SDS011;57170;43.964;21.262;2024-03-23T07:29:06;23.55;;;21.05;;
69890;SDS011;57170;43.964;21.262;2024-03-23T07:31:32;26.13;;;23.38;;
69890;SDS011;57170;43.964;21.262;2024-03-23T07:33:58;26.88;;;24.00;;
69890;SDS011;57170;43.964;21.262;2024-03-23T07:36:24;25.75;;;20.92;;
69890;SDS011;57170;43.964;21.262;2024-03-23T07:38:50;23.25;;;20.90;;
69890;SDS011;57170;43.964;21.262;2024-03-23T07:41:17;22.77;;;20.67;;
69890;SDS011;57170;43.964;21.262;2024-03-23T07:43:44;26.25;;;21.55;;
69890;SDS011;57170;43.964;21.262;2024-03-23T07:46:10;23.05;;;20.65;;
69890;SDS011;57170;43.964;21.262;2024-03-23T07:48:37;21.17;;;19.08;;
69890;SDS011;57170;43.964;21.262;2024-03-23T07:53:30;24.27;;;21.30;;
69890;SDS011;57170;43.964;21.262;2024-03-23T07:58:22;22.73;;;20.35;;
69890;SDS011;57170;43.964;21.262;2024-03-23T08:00:48;22.33;;;20.08;;
69890;SDS011;57170;43.964;21.262;2024-03-23T08:03:14;23.35;;;20.00;;
69890;SDS011;57170;43.964;21.262;2024-03-23T08:05:40;21.65;;;19.05;;
69890;SDS011;57170;43.964;21.262;2024-03-23T08:08:07;23.30;;;20.95;;
69890;SDS011;57170;43.964;21.262;2024-03-23T08:10:33;22.23;;;19.88;;
69890;SDS011;57170;43.964;21.262;2024-03-23T08:13:00;19.63;;;17.23;;
69890;SDS011;57170;43.964;21.262;2024-03-23T08:15:26;19.83;;;17.52;;
69890;SDS011;57170;43.964;21.262;2024-03-23T08:17:52;20.38;;;18.33;;
69890;SDS011;57170;43.964;21.262;2024-03-23T08:20:18;20.30;;;18.25;;
69890;SDS011;57170;43.964;21.262;2024-03-23T08:22:44;20.38;;;16.77;;
69890;SDS011;57170;43.964;21.262;2024-03-23T08:25:10;24.10;;;16.63;;
69890;SDS011;57170;43.964;21.262;2024-03-23T08:27:36;17.33;;;15.27;;
69890;SDS011;57170;43.964;21.262;2024-03-23T08:30:02;17.08;;;15.38;;
69890;SDS011;57170;43.964;21.262;2024-03-23T08:32:29;18.13;;;16.13;;
69890;SDS011;57170;43.964;21.262;2024-03-23T08:34:55;17.30;;;15.43;;
69890;SDS011;57170;43.964;21.262;2024-03-23T08:37:21;18.55;;;15.15;;
69890;SDS011;57170;43.964;21.262;2024-03-23T08:39:50;16.25;;;14.50;;
69890;SDS011;57170;43.964;21.262;2024-03-23T08:42:17;15.90;;;14.27;;
69890;SDS011;57170;43.964;21.262;2024-03-23T08:44:44;16.98;;;15.38;;
69890;SDS011;57170;43.964;21.262;2024-03-23T08:47:12;20.05;;;14.40;;
69890;SDS011;57170;43.964;21.262;2024-03-23T08:49:39;13.95;;;12.65;;
69890;SDS011;57170;43.964;21.262;2024-03-23T08:52:05;15.50;;;13.30;;
69890;SDS011;57170;43.964;21.262;2024-03-23T08:54:31;14.70;;;13.23;;
69890;SDS011;57170;43.964;21.262;2024-03-23T08:56:59;12.27;;;11.05;;
69890;SDS011;57170;43.964;21.262;2024-03-23T08:59:25;12.20;;;11.10;;
69890;SDS011;57170;43.964;21.262;2024-03-23T09:01:52;13.15;;;11.85;;
69890;SDS011;57170;43.964;21.262;2024-03-23T09:04:18;12.40;;;11.20;;
69890;SDS011;57170;43.964;21.262;2024-03-23T09:06:44;16.10;;;12.45;;
69890;SDS011;57170;43.964;21.262;2024-03-23T09:09:10;15.38;;;11.55;;
69890;SDS011;57170;43.964;21.262;2024-03-23T09:11:36;14.75;;;10.75;;
69890;SDS011;57170;43.964;21.262;2024-03-23T09:14:03;12.65;;;11.32;;
69890;SDS011;57170;43.964;21.262;2024-03-23T09:16:29;15.90;;;11.32;;
69890;SDS011;57170;43.964;21.262;2024-03-23T09:18:55;13.45;;;12.02;;
69890;SDS011;57170;43.964;21.262;2024-03-23T09:21:21;12.95;;;11.20;;
69890;SDS011;57170;43.964;21.262;2024-03-23T09:23:47;14.00;;;12.52;;
69890;SDS011;57170;43.964;21.262;2024-03-23T09:26:14;15.25;;;11.73;;
69890;SDS011;57170;43.964;21.262;2024-03-23T09:28:40;12.48;;;11.13;;
69890;SDS011;57170;43.964;21.262;2024-03-23T09:31:07;15.18;;;11.80;;
69890;SDS011;57170;43.964;21.262;2024-03-23T09:33:35;16.02;;;11.93;;
69890;SDS011;57170;43.964;21.262;2024-03-23T09:36:04;12.50;;;11.07;;
69890;SDS011;57170;43.964;21.262;2024-03-23T09:38:30;12.90;;;10.75;;
69890;SDS011;57170;43.964;21.262;2024-03-23T09:40:57;14.00;;;11.00;;
69890;SDS011;57170;43.964;21.262;2024-03-23T09:43:23;15.27;;;11.57;;
69890;SDS011;57170;43.964;21.262;2024-03-23T09:45:49;14.25;;;10.73;;
69890;SDS011;57170;43.964;21.262;2024-03-23T09:48:16;11.95;;;10.40;;
69890;SDS011;57170;43.964;21.262;2024-03-23T09:50:43;13.38;;;10.55;;
69890;SDS011;57170;43.964;21.262;2024-03-23T09:53:10;12.13;;;10.73;;
69890;SDS011;57170;43.964;21.262;2024-03-23T09:55:39;12.30;;;9.52;;
69890;SDS011;57170;43.964;21.262;2024-03-23T09:58:06;10.93;;;9.65;;
69890;SDS011;57170;43.964;21.262;2024-03-23T10:00:33;11.50;;;8.93;;
69890;SDS011;57170;43.964;21.262;2024-03-23T10:02:59;11.65;;;10.40;;
69890;SDS011;57170;43.964;21.262;2024-03-23T10:05:29;11.77;;;10.52;;
69890;SDS011;57170;43.964;21.262;2024-03-23T10:10:43;14.13;;;10.65;;
69890;SDS011;57170;43.964;21.262;2024-03-23T10:13:09;14.63;;;10.90;;
69890;SDS011;57170;43.964;21.262;2024-03-23T10:15:37;14.18;;;10.77;;
69890;SDS011;57170;43.964;21.262;2024-03-23T10:18:19;15.93;;;11.57;;
69890;SDS011;57170;43.964;21.262;2024-03-23T10:21:08;13.38;;;10.98;;
69890;SDS011;57170;43.964;21.262;2024-03-23T10:23:40;13.88;;;10.30;;
69890;SDS011;57170;43.964;21.262;2024-03-23T10:29:00;12.27;;;9.95;;
69890;SDS011;57170;43.964;21.262;2024-03-23T10:31:27;12.80;;;9.85;;
69890;SDS011;57170;43.964;21.262;2024-03-23T10:33:53;12.25;;;10.48;;
69890;SDS011;57170;43.964;21.262;2024-03-23T10:36:20;12.65;;;9.15;;
69890;SDS011;57170;43.964;21.262;2024-03-23T10:38:47;13.60;;;9.25;;
69890;SDS011;57170;43.964;21.262;2024-03-23T10:41:13;16.17;;;10.75;;
69890;SDS011;57170;43.964;21.262;2024-03-23T10:43:40;14.35;;;10.40;;
69890;SDS011;57170;43.964;21.262;2024-03-23T10:46:06;11.00;;;8.63;;
69890;SDS011;57170;43.964;21.262;2024-03-23T10:48:33;11.48;;;9.65;;
69890;SDS011;57170;43.964;21.262;2024-03-23T10:50:59;11.60;;;9.65;;
69890;SDS011;57170;43.964;21.262;2024-03-23T10:53:26;13.23;;;9.10;;
69890;SDS011;57170;43.964;21.262;2024-03-23T10:55:52;13.63;;;8.90;;
69890;SDS011;57170;43.964;21.262;2024-03-23T10:58:21;14.70;;;9.43;;
69890;SDS011;57170;43.964;21.262;2024-03-23T11:00:49;10.30;;;8.75;;
69890;SDS011;57170;43.964;21.262;2024-03-23T11:03:34;11.35;;;9.07;;
69890;SDS011;57170;43.964;21.262;2024-03-23T11:06:06;13.18;;;8.75;;
69890;SDS011;57170;43.964;21.262;2024-03-23T11:08:36;12.27;;;8.50;;
69890;SDS011;57170;43.964;21.262;2024-03-23T11:11:12;15.57;;;10.82;;
69890;SDS011;57170;43.964;21.262;2024-03-23T11:13:38;11.90;;;8.57;;
69890;SDS011;57170;43.964;21.262;2024-03-23T11:16:17;11.38;;;8.60;;
69890;SDS011;57170;43.964;21.262;2024-03-23T11:18:47;12.73;;;9.00;;
69890;SDS011;57170;43.964;21.262;2024-03-23T11:24:13;12.48;;;8.43;;
69890;SDS011;57170;43.964;21.262;2024-03-23T11:26:40;12.77;;;8.77;;
69890;SDS011;57170;43.964;21.262;2024-03-23T11:29:13;12.43;;;8.90;;
69890;SDS011;57170;43.964;21.262;2024-03-23T11:31:48;10.13;;;7.28;;
69890;SDS011;57170;43.964;21.262;2024-03-23T11:34:15;14.13;;;8.20;;
69890;SDS011;57170;43.964;21.262;2024-03-23T11:36:44;9.35;;;8.45;;
69890;SDS011;57170;43.964;21.262;2024-03-23T11:39:14;14.50;;;9.13;;
69890;SDS011;57170;43.964;21.262;2024-03-23T11:41:51;12.02;;;8.63;;
69890;SDS011;57170;43.964;21.262;2024-03-23T11:46:44;12.65;;;8.95;;
69890;SDS011;57170;43.964;21.262;2024-03-23T11:49:23;11.75;;;8.40;;
69890;SDS011;57170;43.964;21.262;2024-03-23T11:51:50;12.45;;;7.97;;
69890;SDS011;57170;43.964;21.262;2024-03-23T11:54:16;8.43;;;7.07;;
69890;SDS011;57170;43.964;21.262;2024-03-23T11:56:58;10.55;;;9.27;;
69890;SDS011;57170;43.964;21.262;2024-03-23T11:59:32;9.55;;;8.18;;
69890;SDS011;57170;43.964;21.262;2024-03-23T12:01:58;10.88;;;8.80;;
69890;SDS011;57170;43.964;21.262;2024-03-23T12:04:25;8.45;;;6.57;;
69890;SDS011;57170;43.964;21.262;2024-03-23T12:06:51;10.38;;;7.53;;
69890;SDS011;57170;43.964;21.262;2024-03-23T12:09:17;9.07;;;6.68;;
69890;SDS011;57170;43.964;21.262;2024-03-23T12:11:44;11.07;;;8.48;;
69890;SDS011;57170;43.964;21.262;2024-03-23T12:14:10;10.23;;;7.97;;
69890;SDS011;57170;43.964;21.262;2024-03-23T12:16:40;10.60;;;8.10;;
69890;SDS011;57170;43.964;21.262;2024-03-23T12:19:06;8.52;;;7.55;;
69890;SDS011;57170;43.964;21.262;2024-03-23T12:21:32;9.88;;;8.20;;
69890;SDS011;57170;43.964;21.262;2024-03-23T12:23:58;9.43;;;7.32;;
69890;SDS011;57170;43.964;21.262;2024-03-23T12:26:25;12.10;;;7.63;;
69890;SDS011;57170;43.964;21.262;2024-03-23T12:28:51;9.38;;;6.93;;
69890;SDS011;57170;43.964;21.262;2024-03-23T12:31:17;12.63;;;8.10;;
69890;SDS011;57170;43.964;21.262;2024-03-23T12:33:43;12.27;;;7.80;;
69890;SDS011;57170;43.964;21.262;2024-03-23T12:36:10;11.65;;;8.40;;
69890;SDS011;57170;43.964;21.262;2024-03-23T12:38:36;10.68;;;7.45;;
69890;SDS011;57170;43.964;21.262;2024-03-23T12:41:02;9.40;;;7.15;;
69890;SDS011;57170;43.964;21.262;2024-03-23T12:43:30;10.85;;;7.40;;
69890;SDS011;57170;43.964;21.262;2024-03-23T12:45:56;10.25;;;7.28;;
69890;SDS011;57170;43.964;21.262;2024-03-23T12:48:22;13.00;;;6.95;;
69890;SDS011;57170;43.964;21.262;2024-03-23T12:50:54;9.75;;;6.80;;
69890;SDS011;57170;43.964;21.262;2024-03-23T12:53:20;8.65;;;6.85;;
69890;SDS011;57170;43.964;21.262;2024-03-23T12:55:46;10.45;;;7.97;;
69890;SDS011;57170;43.964;21.262;2024-03-23T12:58:13;9.75;;;7.00;;
69890;SDS011;57170;43.964;21.262;2024-03-23T13:00:39;11.57;;;7.20;;
69890;SDS011;57170;43.964;21.262;2024-03-23T13:03:05;9.65;;;6.70;;
69890;SDS011;57170;43.964;21.262;2024-03-23T13:05:31;9.07;;;6.13;;
69890;SDS011;57170;43.964;21.262;2024-03-23T13:07:57;9.45;;;6.93;;
69890;SDS011;57170;43.964;21.262;2024-03-23T13:10:23;10.02;;;7.18;;
69890;SDS011;57170;43.964;21.262;2024-03-23T13:12:49;9.30;;;6.85;;
69890;SDS011;57170;43.964;21.262;2024-03-23T13:15:15;13.05;;;7.43;;
69890;SDS011;57170;43.964;21.262;2024-03-23T13:17:42;9.25;;;7.63;;
69890;SDS011;57170;43.964;21.262;2024-03-23T13:20:09;10.23;;;7.47;;
69890;SDS011;57170;43.964;21.262;2024-03-23T13:22:38;9.13;;;7.45;;
69890;SDS011;57170;43.964;21.262;2024-03-23T13:25:05;12.77;;;6.90;;
69890;SDS011;57170;43.964;21.262;2024-03-23T13:27:31;10.43;;;7.53;;
69890;SDS011;57170;43.964;21.262;2024-03-23T13:29:57;11.88;;;6.70;;
69890;SDS011;57170;43.964;21.262;2024-03-23T13:32:23;11.05;;;7.22;;
69890;SDS011;57170;43.964;21.262;2024-03-23T13:34:49;8.85;;;6.82;;
69890;SDS011;57170;43.964;21.262;2024-03-23T13:37:15;8.68;;;6.70;;
69890;SDS011;57170;43.964;21.262;2024-03-23T13:39:41;12.95;;;7.80;;
69890;SDS011;57170;43.964;21.262;2024-03-23T13:42:08;10.63;;;7.78;;
69890;SDS011;57170;43.964;21.262;2024-03-23T13:44:34;10.23;;;7.07;;
69890;SDS011;57170;43.964;21.262;2024-03-23T13:47:01;14.20;;;7.38;;
69890;SDS011;57170;43.964;21.262;2024-03-23T13:49:29;9.50;;;7.03;;
69890;SDS011;57170;43.964;21.262;2024-03-23T13:51:57;9.65;;;7.38;;
69890;SDS011;57170;43.964;21.262;2024-03-23T13:54:24;11.27;;;7.55;;
69890;SDS011;57170;43.964;21.262;2024-03-23T13:56:54;11.35;;;7.70;;
69890;SDS011;57170;43.964;21.262;2024-03-23T13:59:20;8.65;;;6.40;;
69890;SDS011;57170;43.964;21.262;2024-03-23T14:01:48;9.88;;;5.95;;
69890;SDS011;57170;43.964;21.262;2024-03-23T14:04:14;11.95;;;6.90;;
69890;SDS011;57170;43.964;21.262;2024-03-23T14:06:42;7.45;;;6.68;;
69890;SDS011;57170;43.964;21.262;2024-03-23T14:09:10;8.80;;;7.32;;
69890;SDS011;57170;43.964;21.262;2024-03-23T14:11:36;10.93;;;7.57;;
69890;SDS011;57170;43.964;21.262;2024-03-23T14:14:02;15.90;;;7.22;;
69890;SDS011;57170;43.964;21.262;2024-03-23T14:16:29;8.30;;;7.25;;
69890;SDS011;57170;43.964;21.262;2024-03-23T14:18:55;10.20;;;6.57;;
69890;SDS011;57170;43.964;21.262;2024-03-23T14:21:21;8.40;;;7.20;;
69890;SDS011;57170;43.964;21.262;2024-03-23T14:23:48;8.60;;;7.10;;
69890;SDS011;57170;43.964;21.262;2024-03-23T14:26:14;9.55;;;7.40;;
69890;SDS011;57170;43.964;21.262;2024-03-23T14:28:40;11.73;;;6.88;;
69890;SDS011;57170;43.964;21.262;2024-03-23T14:31:06;10.38;;;7.28;;
69890;SDS011;57170;43.964;21.262;2024-03-23T14:33:38;11.23;;;8.68;;
69890;SDS011;57170;43.964;21.262;2024-03-23T14:36:07;14.02;;;8.55;;
69890;SDS011;57170;43.964;21.262;2024-03-23T14:38:33;11.98;;;7.50;;
69890;SDS011;57170;43.964;21.262;2024-03-23T14:40:59;9.38;;;6.45;;
69890;SDS011;57170;43.964;21.262;2024-03-23T14:43:27;9.02;;;7.15;;
69890;SDS011;57170;43.964;21.262;2024-03-23T14:46:09;13.15;;;6.93;;
69890;SDS011;57170;43.964;21.262;2024-03-23T14:48:36;10.17;;;7.97;;
69890;SDS011;57170;43.964;21.262;2024-03-23T14:51:02;9.57;;;7.40;;
69890;SDS011;57170;43.964;21.262;2024-03-23T14:53:33;11.38;;;7.50;;
69890;SDS011;57170;43.964;21.262;2024-03-23T14:56:00;9.75;;;7.53;;
69890;SDS011;57170;43.964;21.262;2024-03-23T14:58:27;8.55;;;7.25;;
69890;SDS011;57170;43.964;21.262;2024-03-23T15:00:59;10.13;;;7.10;;
69890;SDS011;57170;43.964;21.262;2024-03-23T15:03:25;10.00;;;8.02;;
69890;SDS011;57170;43.964;21.262;2024-03-23T15:05:52;8.48;;;6.78;;
69890;SDS011;57170;43.964;21.262;2024-03-23T15:08:18;12.27;;;8.30;;
69890;SDS011;57170;43.964;21.262;2024-03-23T15:10:44;9.20;;;7.43;;
69890;SDS011;57170;43.964;21.262;2024-03-23T15:13:10;13.20;;;8.23;;
69890;SDS011;57170;43.964;21.262;2024-03-23T15:15:40;9.00;;;6.90;;
69890;SDS011;57170;43.964;21.262;2024-03-23T15:18:09;11.95;;;8.05;;
69890;SDS011;57170;43.964;21.262;2024-03-23T15:20:35;11.65;;;7.47;;
69890;SDS011;57170;43.964;21.262;2024-03-23T15:23:02;10.45;;;7.63;;
69890;SDS011;57170;43.964;21.262;2024-03-23T15:25:28;8.35;;;6.97;;